createdAt,value
2023-01-05T00:05:27.883Z,0.42
2023-01-05T00:20:24.253Z,0.46
2023-01-05T00:35:18.347Z,0.40
2023-01-05T00:50:09.689Z,0.50
2023-01-05T01:05:01.727Z,0.50
2023-01-05T01:19:54.253Z,0.50
2023-01-05T01:34:44.615Z,0.40
2023-01-05T01:49:35.872Z,0.40
2023-01-05T02:04:27.683Z,0.46
2023-01-05T02:19:21.878Z,0.30
2023-01-05T02:34:23.415Z,0.44
2023-01-05T02:49:18.760Z,0.46
2023-01-05T03:04:10.381Z,0.40
2023-01-05T03:50:15.809Z,0.40
2023-01-05T04:20:00.947Z,0.43
2023-01-05T04:34:51.779Z,0.50
2023-01-05T04:49:44.118Z,0.40
2023-01-05T05:19:46.280Z,0.57
2023-01-05T05:34:37.464Z,0.60
2023-01-05T05:49:29.403Z,0.97
2023-01-05T06:04:21.084Z,0.86
2023-01-05T06:19:12.613Z,0.60
2023-01-05T07:55:37.340Z,1.28
2023-01-05T09:15:03.491Z,2.22
2023-01-05T09:29:54.711Z,2.04
2023-01-05T09:44:52.678Z,1.98
2023-01-05T09:59:48.946Z,2.40
2023-01-05T10:14:49.875Z,1.92
2023-01-05T10:29:44.931Z,1.93
2023-01-05T10:44:38.556Z,2.19
2023-01-05T10:59:32.241Z,2.09
2023-01-05T11:14:24.049Z,1.90
2023-01-05T11:29:15.531Z,2.20
2023-01-05T11:44:07.404Z,2.53
2023-01-05T11:58:59.948Z,2.23
2023-01-05T12:30:24.982Z,2.79
2023-01-05T12:44:31.106Z,2.34
2023-01-05T12:59:30.755Z,2.08
2023-01-05T13:14:17.530Z,2.39
2023-01-05T13:29:08.320Z,2.51
2023-01-05T13:44:08.086Z,2.23
2023-01-05T13:59:09.615Z,2.37
2023-01-05T14:14:01.331Z,2.23
2023-01-05T14:43:44.636Z,2.23
2023-01-05T14:58:41.024Z,2.80
2023-01-05T15:14:22.099Z,2.50
2023-01-05T15:29:20.498Z,2.47
2023-01-05T15:44:16.575Z,2.27
2023-01-05T15:59:30.663Z,2.11
2023-01-05T16:14:34.163Z,2.82
2023-01-05T16:29:32.200Z,2.40
2023-01-05T18:38:29.664Z,3.74
2023-01-05T19:09:28.802Z,5.41
2023-01-05T19:24:20.308Z,4.51
2023-01-05T19:39:13.583Z,4.78
2023-01-05T19:54:12.202Z,4.96
2023-01-05T20:08:57.620Z,5.17
2023-01-05T20:23:49.047Z,5.17
2023-01-05T20:38:39.878Z,6.16
2023-01-05T20:53:30.298Z,6.99
2023-01-05T21:08:22.503Z,6.71
2023-01-05T21:23:14.404Z,6.81
2023-01-05T21:38:05.933Z,6.40
2023-01-05T21:53:15.271Z,5.92
2023-01-05T22:08:11.104Z,4.93
2023-01-05T22:23:03.243Z,3.83
2023-01-05T22:37:55.001Z,3.16
2023-01-05T22:52:46.679Z,2.81
2023-01-05T23:07:37.821Z,1.97
2023-01-05T23:22:29.168Z,2.43
2023-01-05T23:37:20.719Z,2.24
2023-01-05T23:52:11.902Z,2.30
